createdAt,value
2023-03-06T00:00:38.185Z,12.07
2023-03-06T00:03:05.270Z,12.13
2023-03-06T00:05:32.066Z,16.38
2023-03-06T00:07:58.721Z,13.20
2023-03-06T00:10:28.387Z,10.57
2023-03-06T00:12:58.100Z,12.15
2023-03-06T00:15:26.078Z,11.75
2023-03-06T00:17:52.863Z,13.25
2023-03-06T00:20:20.423Z,13.38
2023-03-06T00:22:47.113Z,12.00
2023-03-06T00:25:16.261Z,12.68
2023-03-06T00:27:43.747Z,13.52
2023-03-06T00:30:14.062Z,15.50
2023-03-06T00:32:41.673Z,14.00
2023-03-06T00:35:08.576Z,13.80
2023-03-06T00:37:35.178Z,13.43
2023-03-06T00:40:01.808Z,15.15
2023-03-06T00:42:28.333Z,13.45
2023-03-06T00:44:54.912Z,13.43
2023-03-06T00:47:21.570Z,12.40
2023-03-06T00:49:48.158Z,13.68
2023-03-06T00:52:14.728Z,16.83
2023-03-06T00:54:41.657Z,17.75
2023-03-06T00:57:08.619Z,16.05
2023-03-06T00:59:35.733Z,13.43
2023-03-06T01:02:02.918Z,13.68
2023-03-06T01:04:29.971Z,14.88
2023-03-06T01:06:56.706Z,16.75
2023-03-06T01:09:24.304Z,14.40
2023-03-06T01:11:50.822Z,14.85
2023-03-06T01:14:19.366Z,16.20
2023-03-06T01:16:47.119Z,13.93
2023-03-06T01:19:13.920Z,15.85
2023-03-06T01:21:40.472Z,15.40
2023-03-06T01:24:07.230Z,16.27
2023-03-06T01:26:34.588Z,16.35
2023-03-06T01:29:01.546Z,15.07
2023-03-06T01:31:28.317Z,13.20
2023-03-06T01:33:55.044Z,14.30
2023-03-06T01:36:21.602Z,14.73
2023-03-06T01:38:48.205Z,13.05
2023-03-06T01:41:15.924Z,20.85
2023-03-06T01:43:45.442Z,14.43
2023-03-06T01:46:41.881Z,13.30
2023-03-06T01:49:11.182Z,14.55
2023-03-06T01:51:49.883Z,13.30
2023-03-06T01:54:22.592Z,14.23
2023-03-06T01:56:53.050Z,13.23
2023-03-06T01:59:21.121Z,13.75
2023-03-06T02:01:48.375Z,14.23
2023-03-06T02:04:17.242Z,17.17
2023-03-06T02:06:44.291Z,15.25
2023-03-06T02:09:12.619Z,14.82
2023-03-06T02:11:43.817Z,18.95
2023-03-06T02:14:13.534Z,15.45
2023-03-06T02:16:41.788Z,15.00
2023-03-06T02:19:22.015Z,15.82
2023-03-06T02:21:48.728Z,14.95
2023-03-06T02:24:39.940Z,15.18
2023-03-06T02:27:07.579Z,18.10
2023-03-06T02:29:35.186Z,16.52
2023-03-06T02:32:01.750Z,17.67
2023-03-06T02:34:28.279Z,18.05
2023-03-06T02:37:01.978Z,17.13
2023-03-06T02:39:33.082Z,14.73
2023-03-06T02:41:59.788Z,24.37
2023-03-06T02:44:27.605Z,19.23
2023-03-06T02:46:54.114Z,19.17
2023-03-06T02:49:20.636Z,17.92
2023-03-06T02:51:47.281Z,20.67
2023-03-06T02:54:13.810Z,17.58
2023-03-06T02:56:40.368Z,18.13
2023-03-06T02:59:06.931Z,17.88
2023-03-06T03:01:33.477Z,17.20
2023-03-06T03:04:00.085Z,18.17
2023-03-06T03:06:26.764Z,15.95
2023-03-06T03:08:53.272Z,17.67
2023-03-06T03:11:19.855Z,19.05
2023-03-06T03:13:46.412Z,17.73
2023-03-06T03:16:15.493Z,19.02
2023-03-06T03:18:44.585Z,20.10
2023-03-06T03:21:13.601Z,20.58
2023-03-06T03:23:40.707Z,18.38
2023-03-06T03:26:13.252Z,15.32
2023-03-06T03:28:39.960Z,20.65
2023-03-06T03:31:08.306Z,17.08
2023-03-06T03:33:35.091Z,16.67
2023-03-06T03:36:04.020Z,17.25
2023-03-06T03:38:30.991Z,18.63
2023-03-06T03:40:57.665Z,19.83
2023-03-06T03:43:24.259Z,16.92
2023-03-06T03:45:53.120Z,20.00
2023-03-06T03:48:20.267Z,16.08
2023-03-06T03:50:46.794Z,18.00
2023-03-06T03:53:13.376Z,18.92
2023-03-06T03:55:39.900Z,18.75
2023-03-06T03:58:06.433Z,17.70
2023-03-06T04:00:32.982Z,23.63
2023-03-06T04:02:59.542Z,26.45
2023-03-06T04:05:26.092Z,21.70
2023-03-06T04:07:52.607Z,19.42
2023-03-06T04:10:19.464Z,19.95
2023-03-06T04:12:46.006Z,20.70
2023-03-06T04:15:12.615Z,18.63
2023-03-06T04:17:39.296Z,21.25
2023-03-06T04:20:06.330Z,18.77
2023-03-06T04:22:32.820Z,17.10
2023-03-06T04:24:59.373Z,17.73
2023-03-06T04:27:25.945Z,18.08
2023-03-06T04:29:56.165Z,18.70
2023-03-06T04:32:23.900Z,17.40
2023-03-06T04:34:50.864Z,18.02
2023-03-06T04:37:23.108Z,22.50
2023-03-06T04:39:49.918Z,18.00
2023-03-06T04:42:16.562Z,18.83
2023-03-06T04:44:43.316Z,21.92
2023-03-06T04:47:10.185Z,23.92
2023-03-06T04:49:37.100Z,19.20
2023-03-06T04:52:04.407Z,20.42
2023-03-06T04:54:30.978Z,21.67
2023-03-06T04:56:57.634Z,19.13
2023-03-06T04:59:24.255Z,21.58
2023-03-06T05:01:50.849Z,20.13
2023-03-06T05:04:17.417Z,19.73
2023-03-06T05:06:44.010Z,18.33
2023-03-06T05:09:10.515Z,22.13
2023-03-06T05:11:37.039Z,19.38
2023-03-06T05:14:03.629Z,20.92
2023-03-06T05:16:30.197Z,22.30
2023-03-06T05:18:56.793Z,22.15
2023-03-06T05:21:23.334Z,21.58
2023-03-06T05:23:49.883Z,19.92
2023-03-06T05:26:16.509Z,22.63
2023-03-06T05:28:43.254Z,23.75
2023-03-06T05:31:09.804Z,26.05
2023-03-06T05:33:36.815Z,20.65
2023-03-06T05:36:03.930Z,24.95
2023-03-06T05:38:30.610Z,22.35
2023-03-06T05:40:57.137Z,21.63
2023-03-06T05:43:23.695Z,22.95
2023-03-06T05:45:53.138Z,25.20
2023-03-06T05:48:19.948Z,25.60
2023-03-06T05:50:46.458Z,28.02
2023-03-06T05:53:13.027Z,20.33
2023-03-06T05:55:39.615Z,14.25
2023-03-06T05:58:06.137Z,17.13
2023-03-06T06:00:32.722Z,18.30
2023-03-06T06:03:02.256Z,21.73
2023-03-06T06:05:28.815Z,21.02
2023-03-06T06:07:55.317Z,22.42
2023-03-06T06:10:21.848Z,23.30
2023-03-06T06:12:48.351Z,22.63
2023-03-06T06:15:15.409Z,26.27
2023-03-06T06:17:42.045Z,25.73
2023-03-06T06:20:09.234Z,24.20
2023-03-06T06:22:37.991Z,23.25
2023-03-06T06:25:06.561Z,24.05
2023-03-06T06:27:33.127Z,26.80
2023-03-06T06:29:59.745Z,25.73
2023-03-06T06:32:26.426Z,27.17
2023-03-06T06:34:53.082Z,26.08
2023-03-06T06:37:19.631Z,28.52
2023-03-06T06:39:46.182Z,26.95
2023-03-06T06:42:30.989Z,26.98
2023-03-06T06:44:59.263Z,27.17
2023-03-06T06:47:26.239Z,27.60
2023-03-06T06:49:54.643Z,30.13
2023-03-06T06:52:22.353Z,32.10
2023-03-06T06:54:48.900Z,31.67
2023-03-06T06:57:16.174Z,35.08
2023-03-06T06:59:43.000Z,29.17
2023-03-06T07:02:14.295Z,31.45
2023-03-06T07:04:56.247Z,31.55
2023-03-06T07:07:27.282Z,30.85
2023-03-06T07:09:54.730Z,31.70
2023-03-06T07:12:21.225Z,33.63
2023-03-06T07:14:48.464Z,32.35
2023-03-06T07:17:15.031Z,37.78
2023-03-06T07:19:41.568Z,29.08
2023-03-06T07:22:08.268Z,35.67
2023-03-06T07:24:35.194Z,33.05
2023-03-06T07:27:01.789Z,26.77
2023-03-06T07:29:28.497Z,32.72
2023-03-06T07:31:55.367Z,29.17
2023-03-06T07:34:22.478Z,32.30
2023-03-06T07:36:50.868Z,29.67
2023-03-06T07:39:17.627Z,33.25
2023-03-06T07:41:44.344Z,36.75
2023-03-06T07:44:10.883Z,31.35
2023-03-06T07:46:37.486Z,29.73
2023-03-06T07:49:04.163Z,30.88
2023-03-06T07:51:30.775Z,35.28
2023-03-06T07:53:57.359Z,32.65
2023-03-06T07:56:23.979Z,34.55
2023-03-06T07:58:50.516Z,31.75
2023-03-06T08:01:20.750Z,32.80
2023-03-06T08:03:50.110Z,36.45
2023-03-06T08:06:25.361Z,30.60
2023-03-06T08:08:53.296Z,36.58
2023-03-06T08:11:22.707Z,33.30
2023-03-06T08:13:49.614Z,36.20
2023-03-06T08:16:17.470Z,37.85
2023-03-06T08:18:46.231Z,36.80
2023-03-06T08:21:15.642Z,36.58
2023-03-06T08:23:42.463Z,32.85
2023-03-06T08:26:17.003Z,32.45
2023-03-06T08:28:43.946Z,31.35
2023-03-06T08:31:18.218Z,30.13
2023-03-06T08:33:44.775Z,37.03
2023-03-06T08:36:11.320Z,37.15
2023-03-06T08:38:37.862Z,32.50
2023-03-06T08:41:04.745Z,34.30
2023-03-06T08:43:31.300Z,37.83
2023-03-06T08:45:59.156Z,40.50
2023-03-06T08:48:25.970Z,35.13
2023-03-06T08:50:52.598Z,35.20
2023-03-06T08:53:19.447Z,33.50
2023-03-06T08:55:46.345Z,36.80
2023-03-06T08:58:12.996Z,36.50
2023-03-06T09:00:39.709Z,33.28
2023-03-06T09:03:06.497Z,36.35
2023-03-06T09:05:33.443Z,36.83
2023-03-06T09:08:00.057Z,33.80
2023-03-06T09:10:27.391Z,40.63
2023-03-06T09:12:55.164Z,37.28
2023-03-06T09:15:23.158Z,34.13
2023-03-06T09:17:50.930Z,32.20
2023-03-06T09:20:18.680Z,31.00
2023-03-06T09:22:48.256Z,31.85
2023-03-06T09:25:20.275Z,27.20
2023-03-06T09:27:51.415Z,28.52
2023-03-06T09:30:22.481Z,30.60
2023-03-06T09:32:49.054Z,27.33
2023-03-06T09:35:15.711Z,26.05
2023-03-06T09:37:42.265Z,26.45
2023-03-06T09:40:22.082Z,24.90
2023-03-06T09:42:48.643Z,22.38
2023-03-06T09:45:15.259Z,21.85
2023-03-06T09:47:51.921Z,21.88
2023-03-06T09:50:38.525Z,20.27
2023-03-06T09:53:41.183Z,24.73
2023-03-06T09:56:16.270Z,21.90
2023-03-06T09:58:48.600Z,21.23
2023-03-06T10:01:23.707Z,18.30
2023-03-06T10:03:56.206Z,18.80
2023-03-06T10:06:30.243Z,25.42
2023-03-06T10:09:11.186Z,22.27
2023-03-06T10:11:43.784Z,19.02
2023-03-06T10:14:21.515Z,18.92
2023-03-06T10:16:48.231Z,16.85
2023-03-06T10:19:19.725Z,19.25
2023-03-06T10:22:03.520Z,23.35
2023-03-06T10:24:39.189Z,21.02
2023-03-06T10:27:27.650Z,19.63
2023-03-06T10:30:18.763Z,20.63
2023-03-06T10:32:49.494Z,19.35
2023-03-06T10:35:25.652Z,23.02
2023-03-06T10:37:59.838Z,21.30
2023-03-06T10:40:35.552Z,20.27
2023-03-06T10:43:11.510Z,24.58
2023-03-06T10:45:53.543Z,17.98
2023-03-06T10:48:32.816Z,18.13
2023-03-06T10:51:20.940Z,19.08
2023-03-06T10:53:56.851Z,24.15
2023-03-06T10:56:43.600Z,19.85
2023-03-06T10:59:25.441Z,17.42
2023-03-06T11:02:13.633Z,20.77
2023-03-06T11:04:41.777Z,20.38
2023-03-06T11:07:09.050Z,22.55
2023-03-06T11:09:36.390Z,19.67
2023-03-06T11:12:35.112Z,20.75
2023-03-06T11:15:22.999Z,24.27
2023-03-06T11:18:00.368Z,21.95
2023-03-06T11:20:51.974Z,20.88
2023-03-06T11:23:35.093Z,25.30
2023-03-06T11:26:29.162Z,24.45
2023-03-06T11:29:18.737Z,21.67
2023-03-06T11:32:06.392Z,23.83
2023-03-06T11:34:41.804Z,22.23
2023-03-06T11:37:25.795Z,23.50
2023-03-06T11:40:20.666Z,24.23
2023-03-06T11:43:01.018Z,22.88
2023-03-06T11:45:43.763Z,24.50
2023-03-06T11:48:13.320Z,23.25
2023-03-06T11:50:45.868Z,24.23
2023-03-06T11:53:30.629Z,22.98
2023-03-06T11:56:18.287Z,24.70
2023-03-06T11:58:57.155Z,27.27
2023-03-06T12:01:45.670Z,25.42
2023-03-06T12:04:12.273Z,24.95
2023-03-06T12:06:47.279Z,25.33
2023-03-06T12:09:13.826Z,26.75
2023-03-06T12:11:43.229Z,29.52
2023-03-06T12:14:32.996Z,23.52
2023-03-06T12:17:06.993Z,23.38
2023-03-06T12:19:54.519Z,26.83
2023-03-06T12:22:27.017Z,26.83
2023-03-06T12:25:18.626Z,30.52
2023-03-06T12:27:58.855Z,29.70
2023-03-06T12:30:28.370Z,31.40
2023-03-06T12:33:12.937Z,28.88
2023-03-06T12:35:59.002Z,28.27
2023-03-06T12:38:40.902Z,27.95
2023-03-06T12:41:22.858Z,38.63
2023-03-06T12:43:52.350Z,37.70
2023-03-06T12:46:24.332Z,27.42
2023-03-06T12:51:39.959Z,29.58
2023-03-06T12:54:07.347Z,35.10
2023-03-06T12:56:35.348Z,28.02
2023-03-06T12:59:05.939Z,29.42
2023-03-06T13:01:48.207Z,34.47
2023-03-06T13:04:17.724Z,27.08
2023-03-06T13:06:58.655Z,29.15
2023-03-06T13:09:37.243Z,29.10
2023-03-06T13:12:27.824Z,32.17
2023-03-06T13:15:29.766Z,30.70
2023-03-06T13:17:57.566Z,29.63
2023-03-06T13:20:29.461Z,29.70
2023-03-06T13:25:22.542Z,28.20
2023-03-06T13:27:54.943Z,29.20
2023-03-06T13:30:36.545Z,28.75
2023-03-06T13:33:36.364Z,27.83
2023-03-06T13:36:41.888Z,31.50
2023-03-06T13:39:12.657Z,30.52
2023-03-06T13:42:03.692Z,27.92
2023-03-06T13:44:30.781Z,31.73
2023-03-06T13:47:05.829Z,33.28
2023-03-06T13:49:34.184Z,29.35
2023-03-06T13:52:10.544Z,28.13
2023-03-06T13:54:52.499Z,28.33
2023-03-06T13:57:18.973Z,26.45
2023-03-06T14:00:03.066Z,27.52
2023-03-06T14:02:59.670Z,26.92
2023-03-06T14:05:41.049Z,30.00
2023-03-06T14:08:19.408Z,25.17
2023-03-06T14:10:49.101Z,27.27
2023-03-06T14:13:41.873Z,26.10
2023-03-06T14:16:19.946Z,27.50
2023-03-06T14:18:48.653Z,23.65
2023-03-06T14:21:21.545Z,27.15
2023-03-06T14:24:00.409Z,26.60
2023-03-06T14:26:31.819Z,24.38
2023-03-06T14:29:00.678Z,23.40
2023-03-06T14:31:28.785Z,28.10
2023-03-06T14:33:56.593Z,25.73
2023-03-06T14:36:36.283Z,23.60
2023-03-06T14:39:08.874Z,29.33
2023-03-06T14:41:36.629Z,24.30
2023-03-06T14:44:16.179Z,25.17
2023-03-06T14:46:42.981Z,25.45
2023-03-06T14:49:10.713Z,29.58
2023-03-06T14:51:43.016Z,23.08
2023-03-06T14:54:17.438Z,22.63
2023-03-06T14:56:50.583Z,21.48
2023-03-06T14:59:25.881Z,24.48
2023-03-06T15:01:58.442Z,24.35
2023-03-06T15:04:46.210Z,24.33
2023-03-06T15:07:16.424Z,24.27
2023-03-06T15:09:50.062Z,23.10
2023-03-06T15:12:26.031Z,30.20
2023-03-06T15:15:26.884Z,20.50
2023-03-06T15:17:53.667Z,25.75
2023-03-06T15:20:41.737Z,21.80
2023-03-06T15:23:34.028Z,24.38
2023-03-06T15:28:39.538Z,26.83
2023-03-06T15:31:21.186Z,23.70
2023-03-06T15:34:06.313Z,24.92
2023-03-06T15:36:34.823Z,24.55
2023-03-06T15:39:01.473Z,27.65
2023-03-06T15:41:38.871Z,24.23
2023-03-06T15:44:14.626Z,24.67
2023-03-06T15:46:42.079Z,27.65
2023-03-06T15:49:17.673Z,24.23
2023-03-06T15:51:44.649Z,23.50
2023-03-06T15:54:12.587Z,25.45
2023-03-06T15:56:42.867Z,27.60
2023-03-06T15:59:19.316Z,29.90
2023-03-06T16:01:46.078Z,25.08
2023-03-06T16:04:13.972Z,27.58
2023-03-06T16:06:40.805Z,23.45
2023-03-06T16:09:07.360Z,23.35
2023-03-06T16:11:43.334Z,25.42
2023-03-06T16:14:23.598Z,24.63
2023-03-06T16:16:52.363Z,27.63
2023-03-06T16:19:29.004Z,28.75
2023-03-06T16:21:56.817Z,27.95
2023-03-06T16:24:24.812Z,26.55
2023-03-06T16:26:53.441Z,27.90
2023-03-06T16:29:23.040Z,27.35
2023-03-06T16:31:50.133Z,27.90
2023-03-06T16:34:17.107Z,25.08
2023-03-06T16:36:43.704Z,26.23
2023-03-06T16:39:15.014Z,28.98
2023-03-06T16:41:41.704Z,26.13
2023-03-06T16:44:10.193Z,26.65
2023-03-06T16:46:42.457Z,26.98
2023-03-06T16:49:15.812Z,27.60
2023-03-06T16:51:42.425Z,28.27
2023-03-06T16:54:08.933Z,30.33
2023-03-06T16:56:35.531Z,28.85
2023-03-06T16:59:02.072Z,27.00
2023-03-06T17:01:28.675Z,31.95
2023-03-06T17:03:55.222Z,29.52
2023-03-06T17:06:23.133Z,30.40
2023-03-06T17:08:50.957Z,29.42
2023-03-06T17:11:20.210Z,30.42
2023-03-06T17:13:47.692Z,33.08
2023-03-06T17:16:16.468Z,27.98
2023-03-06T17:18:45.025Z,30.50
2023-03-06T17:21:12.803Z,32.08
2023-03-06T17:23:39.380Z,29.88
2023-03-06T17:26:08.894Z,29.63
2023-03-06T17:28:37.371Z,31.27
2023-03-06T17:31:18.229Z,30.58
2023-03-06T17:33:45.281Z,30.20
2023-03-06T17:36:12.356Z,32.95
2023-03-06T17:38:38.927Z,31.83
2023-03-06T17:41:06.886Z,32.53
2023-03-06T17:43:33.745Z,31.63
2023-03-06T17:46:04.826Z,33.60
2023-03-06T17:48:31.560Z,30.65
2023-03-06T17:50:58.580Z,32.22
2023-03-06T17:53:25.648Z,33.80
2023-03-06T17:55:52.300Z,34.20
2023-03-06T17:58:20.013Z,29.48
2023-03-06T18:00:46.566Z,33.95
2023-03-06T18:03:13.177Z,31.25
2023-03-06T18:05:39.677Z,35.75
2023-03-06T18:08:08.293Z,33.53
2023-03-06T18:10:34.952Z,33.42
2023-03-06T18:13:01.462Z,33.50
2023-03-06T18:15:28.082Z,32.60
2023-03-06T18:17:56.649Z,36.67
2023-03-06T18:20:23.179Z,36.85
2023-03-06T18:22:49.713Z,39.65
2023-03-06T18:25:17.452Z,36.78
2023-03-06T18:27:43.998Z,36.67
2023-03-06T18:30:11.252Z,37.67
2023-03-06T18:32:37.850Z,37.05
2023-03-06T18:35:04.747Z,35.55
2023-03-06T18:37:31.252Z,41.22
2023-03-06T18:39:57.983Z,39.40
2023-03-06T18:42:24.746Z,40.75
2023-03-06T18:44:51.290Z,40.42
2023-03-06T18:47:17.788Z,41.30
2023-03-06T18:49:45.968Z,44.88
2023-03-06T18:52:12.970Z,42.17
2023-03-06T18:54:39.644Z,37.95
2023-03-06T18:57:06.296Z,47.03
2023-03-06T18:59:33.232Z,42.40
2023-03-06T19:01:59.833Z,44.40
2023-03-06T19:04:27.085Z,44.28
2023-03-06T19:06:54.875Z,45.50
2023-03-06T19:09:22.152Z,42.42
2023-03-06T19:11:49.061Z,42.08
2023-03-06T19:14:16.252Z,42.83
2023-03-06T19:16:42.974Z,46.03
2023-03-06T19:19:09.524Z,46.05
2023-03-06T19:21:36.087Z,45.95
2023-03-06T19:24:02.699Z,44.20
2023-03-06T19:26:29.271Z,53.33
2023-03-06T19:28:55.873Z,48.92
2023-03-06T19:31:25.774Z,47.70
2023-03-06T19:33:53.600Z,51.15
2023-03-06T19:36:23.745Z,53.90
2023-03-06T19:38:53.796Z,47.10
2023-03-06T19:41:20.506Z,49.35
2023-03-06T19:43:52.189Z,52.00
2023-03-06T19:46:19.663Z,55.05
2023-03-06T19:48:46.751Z,50.30
2023-03-06T19:51:13.393Z,50.08
2023-03-06T19:53:40.444Z,52.60
2023-03-06T19:56:08.735Z,47.97
2023-03-06T19:58:35.519Z,50.05
2023-03-06T20:01:17.559Z,54.03
2023-03-06T20:06:14.220Z,52.08
2023-03-06T20:08:41.398Z,47.13
2023-03-06T20:11:17.989Z,46.22
2023-03-06T20:13:47.498Z,46.28
2023-03-06T20:16:14.762Z,55.17
2023-03-06T20:18:41.678Z,45.53
2023-03-06T20:21:08.327Z,49.85
2023-03-06T20:23:35.374Z,45.92
2023-03-06T20:26:07.165Z,52.05
2023-03-06T20:28:33.866Z,44.25
2023-03-06T20:31:06.562Z,49.78
2023-03-06T20:33:33.167Z,47.40
2023-03-06T20:35:59.679Z,47.30
2023-03-06T20:38:26.296Z,47.92
2023-03-06T20:40:55.854Z,51.08
2023-03-06T20:43:22.458Z,47.58
2023-03-06T20:46:00.800Z,46.47
2023-03-06T20:48:27.784Z,45.78
2023-03-06T20:51:09.159Z,46.17
2023-03-06T20:53:36.396Z,47.75
2023-03-06T20:56:03.143Z,45.53
2023-03-06T20:58:31.799Z,43.90
2023-03-06T21:00:59.938Z,41.58
2023-03-06T21:03:29.167Z,41.03
2023-03-06T21:05:56.213Z,41.55
2023-03-06T21:08:23.341Z,48.80
2023-03-06T21:10:50.868Z,41.10
2023-03-06T21:13:17.407Z,46.30
2023-03-06T21:15:47.333Z,38.90
2023-03-06T21:18:13.917Z,41.05
2023-03-06T21:20:41.363Z,37.55
2023-03-06T21:23:08.311Z,44.33
2023-03-06T21:25:35.872Z,42.08
2023-03-06T21:28:02.536Z,37.05
2023-03-06T21:30:30.064Z,40.00
2023-03-06T21:32:56.710Z,35.63
2023-03-06T21:35:23.243Z,40.65
2023-03-06T21:37:49.845Z,37.97
2023-03-06T21:40:16.719Z,37.08
2023-03-06T21:42:43.286Z,37.78
2023-03-06T21:45:10.321Z,35.30
2023-03-06T21:47:38.840Z,35.30
2023-03-06T21:50:07.028Z,33.35
2023-03-06T21:52:33.587Z,33.72
2023-03-06T21:55:00.167Z,35.35
2023-03-06T21:57:26.892Z,36.72
2023-03-06T21:59:53.466Z,38.60
2023-03-06T22:02:20.021Z,36.40
2023-03-06T22:04:50.958Z,33.45
2023-03-06T22:07:17.530Z,34.70
2023-03-06T22:09:44.093Z,33.17
2023-03-06T22:12:10.689Z,35.90
2023-03-06T22:14:37.381Z,32.78
2023-03-06T22:17:04.068Z,38.05
2023-03-06T22:19:30.671Z,32.05
2023-03-06T22:21:57.465Z,39.00
2023-03-06T22:24:24.089Z,38.67
2023-03-06T22:26:50.593Z,35.80
2023-03-06T22:29:17.089Z,37.22
2023-03-06T22:31:43.987Z,35.17
2023-03-06T22:34:10.642Z,35.50
2023-03-06T22:36:37.229Z,36.00
2023-03-06T22:39:04.468Z,40.25
2023-03-06T22:41:31.429Z,41.30
2023-03-06T22:43:59.825Z,37.55
2023-03-06T22:46:26.804Z,42.45
2023-03-06T22:48:55.909Z,41.97
2023-03-06T22:51:22.479Z,40.40
2023-03-06T22:53:49.712Z,43.20
2023-03-06T22:56:18.992Z,42.28
2023-03-06T22:58:46.601Z,37.97
2023-03-06T23:01:24.760Z,38.33
2023-03-06T23:03:54.233Z,40.67
2023-03-06T23:06:27.487Z,41.30
2023-03-06T23:09:02.487Z,43.80
2023-03-06T23:11:29.809Z,40.15
2023-03-06T23:13:57.277Z,39.63
2023-03-06T23:16:24.135Z,41.47
2023-03-06T23:18:52.764Z,38.92
2023-03-06T23:21:21.531Z,41.22
2023-03-06T23:23:50.111Z,38.30
2023-03-06T23:26:19.149Z,41.88
2023-03-06T23:28:45.992Z,37.42
2023-03-06T23:31:15.333Z,39.40
2023-03-06T23:33:42.632Z,44.17
2023-03-06T23:36:12.725Z,41.60
2023-03-06T23:38:39.405Z,41.67
2023-03-06T23:41:12.935Z,38.65
2023-03-06T23:43:39.596Z,39.30
2023-03-06T23:46:07.322Z,42.30
2023-03-06T23:48:35.891Z,42.47
2023-03-06T23:51:21.018Z,42.28
2023-03-06T23:53:53.801Z,39.97
2023-03-06T23:56:20.443Z,41.42
2023-03-06T23:58:47.183Z,42.42
